sensor_id;sensor_type;location;lat;lon;timestamp;temperature;humidity
40454;DHT22;26160;51.858;4.398;2022-09-25T00:00:49;10.70;99.90
40454;DHT22;26160;51.858;4.398;2022-09-25T00:03:17;10.70;99.90
40454;DHT22;26160;51.858;4.398;2022-09-25T00:05:44;10.60;99.90
40454;DHT22;26160;51.858;4.398;2022-09-25T00:08:11;10.60;99.90
40454;DHT22;26160;51.858;4.398;2022-09-25T00:10:49;10.60;99.90
40454;DHT22;26160;51.858;4.398;2022-09-25T00:13:17;10.60;99.90
40454;DHT22;26160;51.858;4.398;2022-09-25T00:15:49;10.60;99.90
40454;DHT22;26160;51.858;4.398;2022-09-25T00:18:16;10.60;99.90
40454;DHT22;26160;51.858;4.398;2022-09-25T00:21:04;10.60;99.90
40454;DHT22;26160;51.858;4.398;2022-09-25T00:23:30;10.50;99.90
40454;DHT22;26160;51.858;4.398;2022-09-25T00:25:57;10.50;99.90
40454;DHT22;26160;51.858;4.398;2022-09-25T00:28:25;10.50;99.90
40454;DHT22;26160;51.858;4.398;2022-09-25T00:30:55;10.40;99.90
40454;DHT22;26160;51.858;4.398;2022-09-25T00:33:21;10.40;99.90
40454;DHT22;26160;51.858;4.398;2022-09-25T00:35:47;10.40;99.90
40454;DHT22;26160;51.858;4.398;2022-09-25T00:38:13;10.40;99.90
40454;DHT22;26160;51.858;4.398;2022-09-25T00:40:40;10.40;99.90
40454;DHT22;26160;51.858;4.398;2022-09-25T00:43:32;10.40;99.90
40454;DHT22;26160;51.858;4.398;2022-09-25T00:46:00;10.40;99.90
40454;DHT22;26160;51.858;4.398;2022-09-25T00:48:28;10.40;99.90
40454;DHT22;26160;51.858;4.398;2022-09-25T00:50:56;10.30;99.90
40454;DHT22;26160;51.858;4.398;2022-09-25T00:53:29;10.30;99.90
40454;DHT22;26160;51.858;4.398;2022-09-25T00:55:57;10.30;99.90
40454;DHT22;26160;51.858;4.398;2022-09-25T00:58:27;10.30;99.90
40454;DHT22;26160;51.858;4.398;2022-09-25T01:03:30;10.20;99.90
40454;DHT22;26160;51.858;4.398;2022-09-25T01:05:56;10.20;99.90
40454;DHT22;26160;51.858;4.398;2022-09-25T01:08:26;10.10;99.90
40454;DHT22;26160;51.858;4.398;2022-09-25T01:10:53;10.10;99.90
40454;DHT22;26160;51.858;4.398;2022-09-25T01:13:19;10.00;99.90
40454;DHT22;26160;51.858;4.398;2022-09-25T01:16:07;10.00;99.90
40454;DHT22;26160;51.858;4.398;2022-09-25T01:19:43;10.00;99.90
40454;DHT22;26160;51.858;4.398;2022-09-25T01:21:48;10.00;99.90
40454;DHT22;26160;51.858;4.398;2022-09-25T01:24:43;10.00;99.90
40454;DHT22;26160;51.858;4.398;2022-09-25T01:30:05;9.90;99.90
40454;DHT22;26160;51.858;4.398;2022-09-25T01:32:35;9.90;99.90
40454;DHT22;26160;51.858;4.398;2022-09-25T01:37:45;9.80;99.90
40454;DHT22;26160;51.858;4.398;2022-09-25T01:40:34;9.80;99.90
40454;DHT22;26160;51.858;4.398;2022-09-25T01:43:16;9.80;99.90
40454;DHT22;26160;51.858;4.398;2022-09-25T01:45:59;9.80;99.90
40454;DHT22;26160;51.858;4.398;2022-09-25T01:48:27;9.90;99.90
40454;DHT22;26160;51.858;4.398;2022-09-25T01:50:59;9.80;99.90
40454;DHT22;26160;51.858;4.398;2022-09-25T01:53:34;9.80;99.90
40454;DHT22;26160;51.858;4.398;2022-09-25T01:56:12;9.80;99.90
40454;DHT22;26160;51.858;4.398;2022-09-25T01:58:45;9.80;99.90
40454;DHT22;26160;51.858;4.398;2022-09-25T02:01:20;9.80;99.90
40454;DHT22;26160;51.858;4.398;2022-09-25T02:03:58;9.70;99.90
40454;DHT22;26160;51.858;4.398;2022-09-25T02:06:29;9.70;99.90
40454;DHT22;26160;51.858;4.398;2022-09-25T02:09:08;9.70;99.90
40454;DHT22;26160;51.858;4.398;2022-09-25T02:11:43;9.60;99.90
40454;DHT22;26160;51.858;4.398;2022-09-25T02:14:22;9.60;99.90
40454;DHT22;26160;51.858;4.398;2022-09-25T02:16:55;9.70;99.90
40454;DHT22;26160;51.858;4.398;2022-09-25T02:19:23;9.80;99.90
40454;DHT22;26160;51.858;4.398;2022-09-25T02:22:13;9.80;99.90
40454;DHT22;26160;51.858;4.398;2022-09-25T02:24:56;9.80;99.90
40454;DHT22;26160;51.858;4.398;2022-09-25T02:27:26;9.90;99.90
40454;DHT22;26160;51.858;4.398;2022-09-25T02:29:54;9.90;99.90
40454;DHT22;26160;51.858;4.398;2022-09-25T02:32:24;9.90;99.90
40454;DHT22;26160;51.858;4.398;2022-09-25T02:34:51;10.00;99.90
40454;DHT22;26160;51.858;4.398;2022-09-25T02:37:18;10.00;99.90
40454;DHT22;26160;51.858;4.398;2022-09-25T02:39:47;10.10;99.90
40454;DHT22;26160;51.858;4.398;2022-09-25T02:45:36;10.20;99.90
40454;DHT22;26160;51.858;4.398;2022-09-25T02:48:22;10.20;99.90
40454;DHT22;26160;51.858;4.398;2022-09-25T02:53:45;10.40;99.90
40454;DHT22;26160;51.858;4.398;2022-09-25T02:56:25;10.40;99.90
40454;DHT22;26160;51.858;4.398;2022-09-25T02:58:57;10.40;99.90
40454;DHT22;26160;51.858;4.398;2022-09-25T03:01:27;10.40;99.90
40454;DHT22;26160;51.858;4.398;2022-09-25T03:03:56;10.40;99.90
40454;DHT22;26160;51.858;4.398;2022-09-25T03:06:25;10.40;99.90
40454;DHT22;26160;51.858;4.398;2022-09-25T03:08:54;10.40;99.90
40454;DHT22;26160;51.858;4.398;2022-09-25T03:11:22;10.40;99.90
40454;DHT22;26160;51.858;4.398;2022-09-25T03:14:00;10.30;99.90
40454;DHT22;26160;51.858;4.398;2022-09-25T03:16:33;10.30;99.90
40454;DHT22;26160;51.858;4.398;2022-09-25T03:19:01;10.30;99.90
40454;DHT22;26160;51.858;4.398;2022-09-25T03:21:28;10.30;99.90
40454;DHT22;26160;51.858;4.398;2022-09-25T03:23:54;10.20;99.90
40454;DHT22;26160;51.858;4.398;2022-09-25T03:26:24;10.30;99.90
40454;DHT22;26160;51.858;4.398;2022-09-25T03:28:52;10.30;99.90
40454;DHT22;26160;51.858;4.398;2022-09-25T03:31:19;10.40;99.90
40454;DHT22;26160;51.858;4.398;2022-09-25T03:33:46;10.40;99.90
40454;DHT22;26160;51.858;4.398;2022-09-25T03:36:18;10.50;99.90
40454;DHT22;26160;51.858;4.398;2022-09-25T03:38:47;10.60;99.90
40454;DHT22;26160;51.858;4.398;2022-09-25T03:41:16;10.70;99.90
40454;DHT22;26160;51.858;4.398;2022-09-25T03:43:46;10.90;99.90
40454;DHT22;26160;51.858;4.398;2022-09-25T03:46:14;11.00;99.90
40454;DHT22;26160;51.858;4.398;2022-09-25T03:48:41;11.10;99.90
40454;DHT22;26160;51.858;4.398;2022-09-25T03:51:07;11.20;99.90
40454;DHT22;26160;51.858;4.398;2022-09-25T03:53:35;11.20;99.90
40454;DHT22;26160;51.858;4.398;2022-09-25T03:56:06;11.30;99.90
40454;DHT22;26160;51.858;4.398;2022-09-25T03:58:34;11.30;99.90
40454;DHT22;26160;51.858;4.398;2022-09-25T04:01:00;11.40;99.90
40454;DHT22;26160;51.858;4.398;2022-09-25T04:03:28;11.40;99.90
40454;DHT22;26160;51.858;4.398;2022-09-25T04:05:55;11.40;99.90
40454;DHT22;26160;51.858;4.398;2022-09-25T04:08:23;11.40;99.90
40454;DHT22;26160;51.858;4.398;2022-09-25T04:10:53;11.40;99.90
40454;DHT22;26160;51.858;4.398;2022-09-25T04:13:24;11.40;99.90
40454;DHT22;26160;51.858;4.398;2022-09-25T04:15:51;11.40;99.90
40454;DHT22;26160;51.858;4.398;2022-09-25T04:18:17;11.40;99.90
40454;DHT22;26160;51.858;4.398;2022-09-25T04:20:44;11.40;99.90
40454;DHT22;26160;51.858;4.398;2022-09-25T04:23:10;11.30;99.90
40454;DHT22;26160;51.858;4.398;2022-09-25T04:25:36;11.30;99.90
40454;DHT22;26160;51.858;4.398;2022-09-25T04:28:02;11.20;99.90
40454;DHT22;26160;51.858;4.398;2022-09-25T04:30:30;11.10;99.90
40454;DHT22;26160;51.858;4.398;2022-09-25T04:32:56;11.10;99.90
40454;DHT22;26160;51.858;4.398;2022-09-25T04:35:41;11.00;99.90
40454;DHT22;26160;51.858;4.398;2022-09-25T04:38:07;10.90;99.90
40454;DHT22;26160;51.858;4.398;2022-09-25T04:40:36;10.90;99.90
40454;DHT22;26160;51.858;4.398;2022-09-25T04:43:04;10.80;99.90
40454;DHT22;26160;51.858;4.398;2022-09-25T04:45:34;10.70;99.90
40454;DHT22;26160;51.858;4.398;2022-09-25T04:48:02;10.70;99.90
40454;DHT22;26160;51.858;4.398;2022-09-25T04:50:30;10.70;99.90
40454;DHT22;26160;51.858;4.398;2022-09-25T04:52:57;10.60;99.90
40454;DHT22;26160;51.858;4.398;2022-09-25T04:55:23;10.60;99.90
40454;DHT22;26160;51.858;4.398;2022-09-25T04:57:51;10.50;99.90
40454;DHT22;26160;51.858;4.398;2022-09-25T05:00:18;10.50;99.90
40454;DHT22;26160;51.858;4.398;2022-09-25T05:02:45;10.50;99.90
40454;DHT22;26160;51.858;4.398;2022-09-25T05:05:11;10.40;99.90
40454;DHT22;26160;51.858;4.398;2022-09-25T05:07:37;10.30;99.90
40454;DHT22;26160;51.858;4.398;2022-09-25T05:10:05;10.30;99.90
40454;DHT22;26160;51.858;4.398;2022-09-25T05:12:34;10.30;99.90
40454;DHT22;26160;51.858;4.398;2022-09-25T05:15:01;10.30;99.90
40454;DHT22;26160;51.858;4.398;2022-09-25T05:17:27;10.20;99.90
40454;DHT22;26160;51.858;4.398;2022-09-25T05:19:53;10.20;99.90
40454;DHT22;26160;51.858;4.398;2022-09-25T05:22:19;10.20;99.90
40454;DHT22;26160;51.858;4.398;2022-09-25T05:24:46;10.20;99.90
40454;DHT22;26160;51.858;4.398;2022-09-25T05:27:12;10.30;99.90
40454;DHT22;26160;51.858;4.398;2022-09-25T05:29:39;10.30;99.90
40454;DHT22;26160;51.858;4.398;2022-09-25T05:32:05;10.30;99.90
40454;DHT22;26160;51.858;4.398;2022-09-25T05:34:31;10.30;99.90
40454;DHT22;26160;51.858;4.398;2022-09-25T05:36:57;10.40;99.90
40454;DHT22;26160;51.858;4.398;2022-09-25T05:39:23;10.40;99.90
40454;DHT22;26160;51.858;4.398;2022-09-25T05:41:49;10.50;99.90
40454;DHT22;26160;51.858;4.398;2022-09-25T05:44:16;10.60;99.90
40454;DHT22;26160;51.858;4.398;2022-09-25T05:46:42;10.60;99.90
40454;DHT22;26160;51.858;4.398;2022-09-25T05:49:08;10.60;99.90
40454;DHT22;26160;51.858;4.398;2022-09-25T05:51:34;10.70;99.90
40454;DHT22;26160;51.858;4.398;2022-09-25T05:54:00;10.70;99.90
40454;DHT22;26160;51.858;4.398;2022-09-25T05:56:26;10.70;99.90
40454;DHT22;26160;51.858;4.398;2022-09-25T05:58:55;10.70;99.90
40454;DHT22;26160;51.858;4.398;2022-09-25T06:01:24;10.70;99.90
40454;DHT22;26160;51.858;4.398;2022-09-25T06:03:50;10.70;99.90
40454;DHT22;26160;51.858;4.398;2022-09-25T06:06:17;10.80;99.90
40454;DHT22;26160;51.858;4.398;2022-09-25T06:08:43;10.80;99.90
40454;DHT22;26160;51.858;4.398;2022-09-25T06:11:09;10.80;99.90
40454;DHT22;26160;51.858;4.398;2022-09-25T06:13:36;10.90;99.90
40454;DHT22;26160;51.858;4.398;2022-09-25T06:16:03;10.90;99.90
40454;DHT22;26160;51.858;4.398;2022-09-25T06:18:30;11.00;99.90
40454;DHT22;26160;51.858;4.398;2022-09-25T06:21:03;11.00;99.90
40454;DHT22;26160;51.858;4.398;2022-09-25T06:23:41;11.00;99.90
40454;DHT22;26160;51.858;4.398;2022-09-25T06:26:09;11.10;99.90
40454;DHT22;26160;51.858;4.398;2022-09-25T06:28:36;11.10;99.90
40454;DHT22;26160;51.858;4.398;2022-09-25T06:31:03;11.20;99.90
40454;DHT22;26160;51.858;4.398;2022-09-25T06:33:30;11.30;99.90
40454;DHT22;26160;51.858;4.398;2022-09-25T06:35:56;11.30;99.90
40454;DHT22;26160;51.858;4.398;2022-09-25T06:38:22;11.40;99.90
40454;DHT22;26160;51.858;4.398;2022-09-25T06:40:49;11.50;99.90
40454;DHT22;26160;51.858;4.398;2022-09-25T06:43:15;11.60;99.90
40454;DHT22;26160;51.858;4.398;2022-09-25T06:45:42;11.80;99.90
40454;DHT22;26160;51.858;4.398;2022-09-25T06:48:13;11.80;99.90
40454;DHT22;26160;51.858;4.398;2022-09-25T06:50:46;11.90;99.90
40454;DHT22;26160;51.858;4.398;2022-09-25T06:53:14;12.00;99.90
40454;DHT22;26160;51.858;4.398;2022-09-25T06:55:41;12.10;99.90
40454;DHT22;26160;51.858;4.398;2022-09-25T06:58:12;12.30;99.90
40454;DHT22;26160;51.858;4.398;2022-09-25T07:00:39;12.20;99.90
40454;DHT22;26160;51.858;4.398;2022-09-25T07:03:06;12.20;99.90
40454;DHT22;26160;51.858;4.398;2022-09-25T07:05:50;12.30;99.90
40454;DHT22;26160;51.858;4.398;2022-09-25T07:08:17;12.30;99.90
40454;DHT22;26160;51.858;4.398;2022-09-25T07:10:50;12.30;99.90
40454;DHT22;26160;51.858;4.398;2022-09-25T07:13:17;12.40;99.90
40454;DHT22;26160;51.858;4.398;2022-09-25T07:15:50;12.40;99.90
40454;DHT22;26160;51.858;4.398;2022-09-25T07:18:16;12.50;99.90
40454;DHT22;26160;51.858;4.398;2022-09-25T07:20:42;12.60;99.90
40454;DHT22;26160;51.858;4.398;2022-09-25T07:23:12;12.60;99.90
40454;DHT22;26160;51.858;4.398;2022-09-25T07:25:40;12.70;99.90
40454;DHT22;26160;51.858;4.398;2022-09-25T07:28:06;12.70;99.90
40454;DHT22;26160;51.858;4.398;2022-09-25T07:30:33;12.80;99.90
40454;DHT22;26160;51.858;4.398;2022-09-25T07:32:59;13.00;99.90
40454;DHT22;26160;51.858;4.398;2022-09-25T07:35:25;13.00;99.90
40454;DHT22;26160;51.858;4.398;2022-09-25T07:37:55;13.10;99.90
40454;DHT22;26160;51.858;4.398;2022-09-25T07:40:22;13.20;99.90
40454;DHT22;26160;51.858;4.398;2022-09-25T07:42:48;13.30;99.90
40454;DHT22;26160;51.858;4.398;2022-09-25T07:45:14;13.40;99.90
40454;DHT22;26160;51.858;4.398;2022-09-25T07:47:40;13.30;99.90
40454;DHT22;26160;51.858;4.398;2022-09-25T07:50:07;13.40;99.90
40454;DHT22;26160;51.858;4.398;2022-09-25T07:52:33;13.40;99.90
40454;DHT22;26160;51.858;4.398;2022-09-25T07:54:59;13.40;99.90
40454;DHT22;26160;51.858;4.398;2022-09-25T07:57:25;13.30;99.90
40454;DHT22;26160;51.858;4.398;2022-09-25T07:59:52;13.40;99.90
40454;DHT22;26160;51.858;4.398;2022-09-25T08:02:19;13.40;99.90
40454;DHT22;26160;51.858;4.398;2022-09-25T08:04:45;13.50;99.90
40454;DHT22;26160;51.858;4.398;2022-09-25T08:07:11;13.50;99.90
40454;DHT22;26160;51.858;4.398;2022-09-25T08:09:37;13.60;99.90
40454;DHT22;26160;51.858;4.398;2022-09-25T08:12:05;13.70;99.90
40454;DHT22;26160;51.858;4.398;2022-09-25T08:14:32;13.80;99.90
40454;DHT22;26160;51.858;4.398;2022-09-25T08:16:59;13.90;99.90
40454;DHT22;26160;51.858;4.398;2022-09-25T08:19:25;13.90;99.90
40454;DHT22;26160;51.858;4.398;2022-09-25T08:21:52;14.00;99.90
40454;DHT22;26160;51.858;4.398;2022-09-25T08:24:18;14.20;99.90
40454;DHT22;26160;51.858;4.398;2022-09-25T08:26:45;14.30;99.90
40454;DHT22;26160;51.858;4.398;2022-09-25T08:29:11;14.40;99.90
40454;DHT22;26160;51.858;4.398;2022-09-25T08:31:37;14.40;99.90
40454;DHT22;26160;51.858;4.398;2022-09-25T08:34:03;14.60;99.90
40454;DHT22;26160;51.858;4.398;2022-09-25T08:36:29;14.70;99.90
40454;DHT22;26160;51.858;4.398;2022-09-25T08:38:55;14.70;99.90
40454;DHT22;26160;51.858;4.398;2022-09-25T08:41:30;14.70;99.90
40454;DHT22;26160;51.858;4.398;2022-09-25T08:44:10;14.70;99.90
40454;DHT22;26160;51.858;4.398;2022-09-25T08:46:48;14.60;99.90
40454;DHT22;26160;51.858;4.398;2022-09-25T08:49:38;14.60;99.90
40454;DHT22;26160;51.858;4.398;2022-09-25T08:52:07;14.50;99.90
40454;DHT22;26160;51.858;4.398;2022-09-25T08:54:38;14.40;99.90
40454;DHT22;26160;51.858;4.398;2022-09-25T08:57:29;14.50;99.90
40454;DHT22;26160;51.858;4.398;2022-09-25T09:00:03;14.50;99.90
40454;DHT22;26160;51.858;4.398;2022-09-25T09:02:54;14.60;99.90
40454;DHT22;26160;51.858;4.398;2022-09-25T09:05:23;14.60;99.90
40454;DHT22;26160;51.858;4.398;2022-09-25T09:08:05;14.70;99.90
40454;DHT22;26160;51.858;4.398;2022-09-25T09:13:26;15.30;99.90
40454;DHT22;26160;51.858;4.398;2022-09-25T09:16:04;15.60;99.90
40454;DHT22;26160;51.858;4.398;2022-09-25T09:18:37;15.90;99.90
40454;DHT22;26160;51.858;4.398;2022-09-25T09:21:19;16.10;99.90
40454;DHT22;26160;51.858;4.398;2022-09-25T09:30:12;16.30;99.90
40454;DHT22;26160;51.858;4.398;2022-09-25T09:33:21;16.40;99.90
40454;DHT22;26160;51.858;4.398;2022-09-25T09:49:23;16.80;99.90
40454;DHT22;26160;51.858;4.398;2022-09-25T09:52:08;16.90;99.90
40454;DHT22;26160;51.858;4.398;2022-09-25T09:57:31;17.00;99.90
40454;DHT22;26160;51.858;4.398;2022-09-25T10:00:07;17.00;99.90
40454;DHT22;26160;51.858;4.398;2022-09-25T10:02:39;17.00;99.90
40454;DHT22;26160;51.858;4.398;2022-09-25T10:08:18;17.00;99.90
40454;DHT22;26160;51.858;4.398;2022-09-25T10:10:47;17.00;99.90
40454;DHT22;26160;51.858;4.398;2022-09-25T10:13:26;16.90;99.90
40454;DHT22;26160;51.858;4.398;2022-09-25T10:16:01;17.00;99.90
40454;DHT22;26160;51.858;4.398;2022-09-25T10:18:44;17.20;99.90
40454;DHT22;26160;51.858;4.398;2022-09-25T10:21:23;17.50;99.90
40454;DHT22;26160;51.858;4.398;2022-09-25T10:23:54;17.60;99.90
40454;DHT22;26160;51.858;4.398;2022-09-25T10:26:28;17.80;99.90
40454;DHT22;26160;51.858;4.398;2022-09-25T10:28:59;17.80;99.90
40454;DHT22;26160;51.858;4.398;2022-09-25T10:31:38;17.90;99.90
40454;DHT22;26160;51.858;4.398;2022-09-25T10:36:45;17.90;99.90
40454;DHT22;26160;51.858;4.398;2022-09-25T10:41:57;18.20;99.90
40454;DHT22;26160;51.858;4.398;2022-09-25T10:44:34;18.40;99.90
40454;DHT22;26160;51.858;4.398;2022-09-25T10:52:51;18.60;99.90
40454;DHT22;26160;51.858;4.398;2022-09-25T10:58:18;18.40;99.90
40454;DHT22;26160;51.858;4.398;2022-09-25T11:00:53;18.30;99.90
40454;DHT22;26160;51.858;4.398;2022-09-25T11:03:21;18.20;99.90
40454;DHT22;26160;51.858;4.398;2022-09-25T11:06:01;18.10;99.90
40454;DHT22;26160;51.858;4.398;2022-09-25T11:08:32;17.90;99.90
40454;DHT22;26160;51.858;4.398;2022-09-25T11:11:00;17.70;99.90
40454;DHT22;26160;51.858;4.398;2022-09-25T11:16:05;17.20;99.90
40454;DHT22;26160;51.858;4.398;2022-09-25T11:18:39;17.00;99.90
40454;DHT22;26160;51.858;4.398;2022-09-25T11:21:32;16.90;99.90
40454;DHT22;26160;51.858;4.398;2022-09-25T11:24:25;17.00;99.90
40454;DHT22;26160;51.858;4.398;2022-09-25T11:26:58;17.20;99.90
40454;DHT22;26160;51.858;4.398;2022-09-25T11:29:52;17.00;99.90
40454;DHT22;26160;51.858;4.398;2022-09-25T11:32:38;17.20;99.90
40454;DHT22;26160;51.858;4.398;2022-09-25T11:38:32;17.60;99.90
40454;DHT22;26160;51.858;4.398;2022-09-25T11:41:38;17.90;99.90
40454;DHT22;26160;51.858;4.398;2022-09-25T11:44:42;18.10;99.90
40454;DHT22;26160;51.858;4.398;2022-09-25T11:47:16;18.20;99.90
40454;DHT22;26160;51.858;4.398;2022-09-25T11:49:47;18.40;99.90
40454;DHT22;26160;51.858;4.398;2022-09-25T11:55:09;18.80;99.90
40454;DHT22;26160;51.858;4.398;2022-09-25T12:05:52;19.80;99.90
40454;DHT22;26160;51.858;4.398;2022-09-25T12:11:10;19.90;99.90
40454;DHT22;26160;51.858;4.398;2022-09-25T12:14:03;19.70;99.90
40454;DHT22;26160;51.858;4.398;2022-09-25T12:16:55;19.10;99.90
40454;DHT22;26160;51.858;4.398;2022-09-25T12:24:54;19.30;99.90
40454;DHT22;26160;51.858;4.398;2022-09-25T12:27:51;19.30;99.90
40454;DHT22;26160;51.858;4.398;2022-09-25T12:30:22;19.40;99.90
40454;DHT22;26160;51.858;4.398;2022-09-25T12:33:15;19.50;99.90
40454;DHT22;26160;51.858;4.398;2022-09-25T12:35:57;19.70;99.90
40454;DHT22;26160;51.858;4.398;2022-09-25T12:41:22;19.70;99.90
40454;DHT22;26160;51.858;4.398;2022-09-25T12:43:54;19.70;99.90
40454;DHT22;26160;51.858;4.398;2022-09-25T12:51:46;20.00;99.90
40454;DHT22;26160;51.858;4.398;2022-09-25T12:57:38;19.60;99.90
40454;DHT22;26160;51.858;4.398;2022-09-25T13:00:23;19.50;99.90
40454;DHT22;26160;51.858;4.398;2022-09-25T13:05:36;19.30;99.90
40454;DHT22;26160;51.858;4.398;2022-09-25T13:11:26;19.20;99.90
40454;DHT22;26160;51.858;4.398;2022-09-25T13:13:55;18.90;99.90
40454;DHT22;26160;51.858;4.398;2022-09-25T13:16:22;18.60;99.90
40454;DHT22;26160;51.858;4.398;2022-09-25T13:19:21;18.40;99.90
40454;DHT22;26160;51.858;4.398;2022-09-25T13:21:48;18.50;99.90
40454;DHT22;26160;51.858;4.398;2022-09-25T13:24:16;18.70;99.90
40454;DHT22;26160;51.858;4.398;2022-09-25T13:26:51;18.90;99.90
40454;DHT22;26160;51.858;4.398;2022-09-25T13:29:28;19.00;99.90
40454;DHT22;26160;51.858;4.398;2022-09-25T13:32:07;19.00;99.90
40454;DHT22;26160;51.858;4.398;2022-09-25T13:34:39;19.20;99.90
40454;DHT22;26160;51.858;4.398;2022-09-25T13:37:09;19.00;99.90
40454;DHT22;26160;51.858;4.398;2022-09-25T13:39:41;18.80;99.90
40454;DHT22;26160;51.858;4.398;2022-09-25T13:42:37;18.60;99.90
40454;DHT22;26160;51.858;4.398;2022-09-25T14:01:39;18.80;99.90
40454;DHT22;26160;51.858;4.398;2022-09-25T14:04:19;18.50;99.90
40454;DHT22;26160;51.858;4.398;2022-09-25T14:06:49;18.20;99.90
40454;DHT22;26160;51.858;4.398;2022-09-25T14:09:23;18.20;99.90
40454;DHT22;26160;51.858;4.398;2022-09-25T14:14:33;18.40;99.90
40454;DHT22;26160;51.858;4.398;2022-09-25T14:17:03;18.70;99.90
40454;DHT22;26160;51.858;4.398;2022-09-25T14:19:33;18.80;99.90
40454;DHT22;26160;51.858;4.398;2022-09-25T14:22:02;18.80;99.90
40454;DHT22;26160;51.858;4.398;2022-09-25T14:24:29;18.70;99.90
40454;DHT22;26160;51.858;4.398;2022-09-25T14:27:00;18.70;99.90
40454;DHT22;26160;51.858;4.398;2022-09-25T14:29:30;18.60;99.90
40454;DHT22;26160;51.858;4.398;2022-09-25T14:37:51;18.00;99.90
40454;DHT22;26160;51.858;4.398;2022-09-25T14:43:46;17.80;99.90
40454;DHT22;26160;51.858;4.398;2022-09-25T14:46:17;17.70;99.90
40454;DHT22;26160;51.858;4.398;2022-09-25T14:49:10;17.60;99.90
40454;DHT22;26160;51.858;4.398;2022-09-25T14:51:45;17.50;99.90
40454;DHT22;26160;51.858;4.398;2022-09-25T14:54:17;17.50;99.90
40454;DHT22;26160;51.858;4.398;2022-09-25T14:56:45;17.60;99.90
40454;DHT22;26160;51.858;4.398;2022-09-25T14:59:18;17.70;99.90
40454;DHT22;26160;51.858;4.398;2022-09-25T15:01:50;17.70;99.90
40454;DHT22;26160;51.858;4.398;2022-09-25T15:04:29;17.80;99.90
40454;DHT22;26160;51.858;4.398;2022-09-25T15:07:10;17.80;99.90
40454;DHT22;26160;51.858;4.398;2022-09-25T15:09:40;17.70;99.90
40454;DHT22;26160;51.858;4.398;2022-09-25T15:12:19;17.60;99.90
40454;DHT22;26160;51.858;4.398;2022-09-25T15:15:09;17.70;99.90
40454;DHT22;26160;51.858;4.398;2022-09-25T15:17:50;17.60;99.90
40454;DHT22;26160;51.858;4.398;2022-09-25T15:20:20;17.70;99.90
40454;DHT22;26160;51.858;4.398;2022-09-25T15:25:26;17.50;99.90
40454;DHT22;26160;51.858;4.398;2022-09-25T15:27:53;17.30;99.90
40454;DHT22;26160;51.858;4.398;2022-09-25T15:30:19;17.00;99.90
40454;DHT22;26160;51.858;4.398;2022-09-25T15:32:47;16.90;99.90
40454;DHT22;26160;51.858;4.398;2022-09-25T15:35:24;16.80;99.90
40454;DHT22;26160;51.858;4.398;2022-09-25T15:38:10;16.80;99.90
40454;DHT22;26160;51.858;4.398;2022-09-25T15:40:37;16.80;99.90
40454;DHT22;26160;51.858;4.398;2022-09-25T15:43:13;16.80;99.90
40454;DHT22;26160;51.858;4.398;2022-09-25T15:45:53;16.80;99.90
40454;DHT22;26160;51.858;4.398;2022-09-25T15:48:21;16.80;99.90
40454;DHT22;26160;51.858;4.398;2022-09-25T15:50:49;16.70;99.90
40454;DHT22;26160;51.858;4.398;2022-09-25T15:53:23;16.50;99.90
40454;DHT22;26160;51.858;4.398;2022-09-25T15:56:21;16.50;99.90
40454;DHT22;26160;51.858;4.398;2022-09-25T15:58:51;16.40;99.90
40454;DHT22;26160;51.858;4.398;2022-09-25T16:01:22;16.30;99.90
40454;DHT22;26160;51.858;4.398;2022-09-25T16:04:09;16.10;99.90
40454;DHT22;26160;51.858;4.398;2022-09-25T16:06:56;16.10;99.90
40454;DHT22;26160;51.858;4.398;2022-09-25T16:09:29;16.00;99.90
40454;DHT22;26160;51.858;4.398;2022-09-25T16:14:47;16.10;99.90
40454;DHT22;26160;51.858;4.398;2022-09-25T16:17:38;16.10;99.90
40454;DHT22;26160;51.858;4.398;2022-09-25T16:23:03;16.00;99.90
40454;DHT22;26160;51.858;4.398;2022-09-25T16:25:35;16.00;99.90
40454;DHT22;26160;51.858;4.398;2022-09-25T16:28:15;15.90;99.90
40454;DHT22;26160;51.858;4.398;2022-09-25T16:31:00;15.80;99.90
40454;DHT22;26160;51.858;4.398;2022-09-25T16:33:33;15.70;99.90
40454;DHT22;26160;51.858;4.398;2022-09-25T16:36:05;15.70;99.90
40454;DHT22;26160;51.858;4.398;2022-09-25T16:38:35;15.60;99.90
40454;DHT22;26160;51.858;4.398;2022-09-25T16:43:39;15.60;99.90
40454;DHT22;26160;51.858;4.398;2022-09-25T16:48:40;15.60;99.90
40454;DHT22;26160;51.858;4.398;2022-09-25T16:51:30;15.60;99.90
40454;DHT22;26160;51.858;4.398;2022-09-25T16:53:57;15.60;99.90
40454;DHT22;26160;51.858;4.398;2022-09-25T16:56:29;15.50;99.90
40454;DHT22;26160;51.858;4.398;2022-09-25T16:58:56;15.50;99.90
40454;DHT22;26160;51.858;4.398;2022-09-25T17:01:25;15.50;99.90
40454;DHT22;26160;51.858;4.398;2022-09-25T17:03:51;15.50;99.90
40454;DHT22;26160;51.858;4.398;2022-09-25T17:06:18;15.40;99.90
40454;DHT22;26160;51.858;4.398;2022-09-25T17:08:45;15.30;99.90
40454;DHT22;26160;51.858;4.398;2022-09-25T17:11:13;15.30;99.90
40454;DHT22;26160;51.858;4.398;2022-09-25T17:13:41;15.30;99.90
40454;DHT22;26160;51.858;4.398;2022-09-25T17:16:07;15.20;99.90
40454;DHT22;26160;51.858;4.398;2022-09-25T17:18:33;15.20;99.90
40454;DHT22;26160;51.858;4.398;2022-09-25T17:21:02;15.20;99.90
40454;DHT22;26160;51.858;4.398;2022-09-25T17:23:29;15.20;99.90
40454;DHT22;26160;51.858;4.398;2022-09-25T17:26:04;15.10;99.90
40454;DHT22;26160;51.858;4.398;2022-09-25T17:28:30;15.10;99.90
40454;DHT22;26160;51.858;4.398;2022-09-25T17:30:59;15.10;99.90
40454;DHT22;26160;51.858;4.398;2022-09-25T17:33:26;15.10;99.90
40454;DHT22;26160;51.858;4.398;2022-09-25T17:36:06;15.10;99.90
40454;DHT22;26160;51.858;4.398;2022-09-25T17:38:34;15.10;99.90
40454;DHT22;26160;51.858;4.398;2022-09-25T17:41:03;15.10;99.90
40454;DHT22;26160;51.858;4.398;2022-09-25T17:43:31;15.10;99.90
40454;DHT22;26160;51.858;4.398;2022-09-25T17:45:59;15.10;99.90
40454;DHT22;26160;51.858;4.398;2022-09-25T17:48:28;14.80;99.90
40454;DHT22;26160;51.858;4.398;2022-09-25T17:50:59;14.50;99.90
40454;DHT22;26160;51.858;4.398;2022-09-25T17:53:30;14.20;99.90
40454;DHT22;26160;51.858;4.398;2022-09-25T17:55:58;14.00;99.90
40454;DHT22;26160;51.858;4.398;2022-09-25T17:58:26;13.90;99.90
40454;DHT22;26160;51.858;4.398;2022-09-25T18:00:53;13.90;99.90
40454;DHT22;26160;51.858;4.398;2022-09-25T18:03:20;13.80;99.90
40454;DHT22;26160;51.858;4.398;2022-09-25T18:05:46;13.70;99.90
40454;DHT22;26160;51.858;4.398;2022-09-25T18:08:13;13.70;99.90
40454;DHT22;26160;51.858;4.398;2022-09-25T18:10:39;13.70;99.90
40454;DHT22;26160;51.858;4.398;2022-09-25T18:13:12;13.60;99.90
40454;DHT22;26160;51.858;4.398;2022-09-25T18:15:56;13.50;99.90
40454;DHT22;26160;51.858;4.398;2022-09-25T18:18:24;13.50;99.90
40454;DHT22;26160;51.858;4.398;2022-09-25T18:20:55;13.40;99.90
40454;DHT22;26160;51.858;4.398;2022-09-25T18:23:40;13.40;99.90